Date,TemperatureHighF,TemperatureAvgF,TemperatureLowF,DewpointHighF,DewpointAvgF,DewpointLowF,HumidityHigh,HumidityAvg,HumidityLow,PressureMaxIn,PressureMinIn,WindSpeedMaxMPH,WindSpeedAvgMPH,GustSpeedMaxMPH,PrecipitationSumIn
2013-3-1,35,32,30,-100,-100,-100,0,0,100,0.00,40.00,0,-999,0,0.00
2013-3-2,32,29,28,-100,-100,-100,0,0,100,0.00,40.00,0,-999,0,0.00
2013-3-3,43,33,21,-100,-100,-100,0,0,100,0.00,40.00,0,-999,0,0.00
2013-3-4,54,45,34,-100,-100,-100,0,0,100,0.00,40.00,0,-999,0,0.00
2013-3-5,49,37,31,-100,-100,-100,0,0,100,0.00,40.00,0,-999,0,0.00
2013-3-6,39,34,30,-100,-100,-100,0,0,100,0.00,40.00,0,-999,0,0.00
2013-3-7,46,34,26,-100,-100,-100,0,0,100,0.00,40.00,0,-999,0,0.00
2013-3-8,56,40,27,-100,-100,-100,0,0,100,0.00,40.00,0,-999,0,0.00
2013-3-9,65,52,42,-100,-100,-100,0,0,100,0.00,40.00,0,-999,0,0.00
2013-3-10,64,56,48,-100,-100,-100,0,0,100,0.00,40.00,0,-999,0,0.00
2013-3-11,48,40,36,-100,-100,-100,0,0,100,0.00,40.00,0,-999,0,0.00
2013-3-12,51,41,32,-100,-100,-100,0,0,100,0.00,40.00,0,-999,0,0.00
2013-3-13,41,35,29,-100,-100,-100,0,0,100,0.00,40.00,0,-999,0,0.00
2013-3-14,42,34,26,-100,-100,-100,0,0,100,0.00,40.00,0,-999,0,0.00
2013-3-15,68,48,37,-100,-100,-100,0,0,100,0.00,40.00,0,-999,0,0.00
2013-3-16,61,52,39,-100,-100,-100,0,0,100,0.00,40.00,0,-999,0,0.00
2013-3-17,40,38,34,-100,-100,-100,0,0,100,0.00,40.00,0,-999,0,0.00
2013-3-18,47,43,36,-100,-100,-100,0,0,100,0.00,40.00,0,-999,0,0.00
2013-3-19,48,41,31,-100,-100,-100,0,0,100,0.00,40.00,0,-999,0,0.00
2013-3-20,38,34,27,-100,-100,-100,0,0,100,0.00,40.00,0,-999,0,0.00
2013-3-21,40,31,21,-100,-100,-100,0,0,100,0.00,40.00,0,-999,0,0.00
2013-3-22,42,36,32,-100,-100,-100,0,0,100,0.00,40.00,0,-999,0,0.00
2013-3-23,54,44,38,-100,-100,-100,0,0,100,0.00,40.00,0,-999,0,0.00
2013-3-24,44,37,31,-100,-100,-100,0,0,100,0.00,40.00,0,-999,0,0.00
2013-3-25,34,32,30,-100,-100,-100,0,0,100,0.00,40.00,0,-999,0,0.00
2013-3-26,43,34,30,-100,-100,-100,0,0,100,0.00,40.00,0,-999,0,0.00
2013-3-27,50,39,29,-100,-100,-100,0,0,100,0.00,40.00,0,-999,0,0.00
2013-3-28,58,47,36,-100,-100,-100,0,0,100,0.00,40.00,0,-999,0,0.00
2013-3-29,52,46,43,-100,-100,-100,0,0,100,0.00,40.00,0,-999,0,0.00
2013-3-30,54,46,39,-100,-100,-100,0,0,100,0.00,40.00,0,-999,0,0.00
2013-3-31,65,54,48,-100,-100,-100,0,0,100,0.00,40.00,0,-999,0,0.00